sensor_id;sensor_type;location;lat;lon;timestamp;pressure;altitude;pressure_sealevel;temperature;humidity
4415;BME280;2220;42.670;23.398;2023-02-02T00:01:56;94780.56;;;5.99;100.00
4415;BME280;2220;42.670;23.398;2023-02-02T00:04:35;94787.88;;;5.91;100.00
4415;BME280;2220;42.670;23.398;2023-02-02T00:07:01;94792.38;;;5.95;100.00
4415;BME280;2220;42.670;23.398;2023-02-02T00:09:30;94801.78;;;5.89;100.00
4415;BME280;2220;42.670;23.398;2023-02-02T00:11:58;94794.69;;;5.85;100.00
4415;BME280;2220;42.670;23.398;2023-02-02T00:14:23;94785.00;;;5.69;100.00
4415;BME280;2220;42.670;23.398;2023-02-02T00:16:51;94773.22;;;5.61;100.00
4415;BME280;2220;42.670;23.398;2023-02-02T00:19:20;94789.28;;;5.75;100.00
4415;BME280;2220;42.670;23.398;2023-02-02T00:21:46;94775.81;;;5.73;100.00
4415;BME280;2220;42.670;23.398;2023-02-02T00:24:13;94781.28;;;5.41;100.00
4415;BME280;2220;42.670;23.398;2023-02-02T00:26:40;94772.38;;;5.37;100.00
4415;BME280;2220;42.670;23.398;2023-02-02T00:29:08;94782.41;;;5.45;100.00
4415;BME280;2220;42.670;23.398;2023-02-02T00:31:37;94768.13;;;5.31;100.00
4415;BME280;2220;42.670;23.398;2023-02-02T00:34:02;94761.03;;;5.26;100.00
4415;BME280;2220;42.670;23.398;2023-02-02T00:36:28;94766.75;;;5.17;100.00
4415;BME280;2220;42.670;23.398;2023-02-02T00:38:53;94764.84;;;5.24;100.00
4415;BME280;2220;42.670;23.398;2023-02-02T00:41:19;94753.97;;;5.22;100.00
4415;BME280;2220;42.670;23.398;2023-02-02T00:43:44;94766.59;;;5.12;100.00
4415;BME280;2220;42.670;23.398;2023-02-02T00:46:30;94768.16;;;5.01;100.00
4415;BME280;2220;42.670;23.398;2023-02-02T00:48:55;94746.03;;;4.93;100.00
4415;BME280;2220;42.670;23.398;2023-02-02T00:51:21;94725.16;;;4.65;100.00
4415;BME280;2220;42.670;23.398;2023-02-02T00:53:46;94711.16;;;4.72;100.00
4415;BME280;2220;42.670;23.398;2023-02-02T00:56:12;94715.41;;;4.67;100.00
4415;BME280;2220;42.670;23.398;2023-02-02T00:58:37;94712.94;;;4.72;100.00
4415;BME280;2220;42.670;23.398;2023-02-02T01:01:03;94697.28;;;4.85;100.00
4415;BME280;2220;42.670;23.398;2023-02-02T01:03:28;94696.88;;;4.58;100.00
4415;BME280;2220;42.670;23.398;2023-02-02T01:05:54;94694.25;;;4.76;100.00
4415;BME280;2220;42.670;23.398;2023-02-02T01:08:19;94676.63;;;4.73;100.00
4415;BME280;2220;42.670;23.398;2023-02-02T01:10:45;94663.50;;;4.75;100.00
4415;BME280;2220;42.670;23.398;2023-02-02T01:13:10;94670.00;;;4.77;100.00
4415;BME280;2220;42.670;23.398;2023-02-02T01:15:36;94677.19;;;4.75;100.00
4415;BME280;2220;42.670;23.398;2023-02-02T01:18:01;94662.81;;;4.68;100.00
4415;BME280;2220;42.670;23.398;2023-02-02T01:20:27;94657.59;;;4.56;100.00
4415;BME280;2220;42.670;23.398;2023-02-02T01:22:52;94629.66;;;4.41;100.00
4415;BME280;2220;42.670;23.398;2023-02-02T01:25:18;94614.50;;;4.45;100.00
4415;BME280;2220;42.670;23.398;2023-02-02T01:27:43;94599.34;;;4.37;100.00
4415;BME280;2220;42.670;23.398;2023-02-02T01:30:09;94585.66;;;3.95;100.00
4415;BME280;2220;42.670;23.398;2023-02-02T01:32:35;94567.09;;;4.16;100.00
4415;BME280;2220;42.670;23.398;2023-02-02T01:35:00;94516.25;;;3.81;100.00
4415;BME280;2220;42.670;23.398;2023-02-02T01:37:26;94454.13;;;3.59;100.00
4415;BME280;2220;42.670;23.398;2023-02-02T01:39:51;94418.69;;;3.85;100.00
4415;BME280;2220;42.670;23.398;2023-02-02T01:42:21;94401.78;;;3.89;100.00
4415;BME280;2220;42.670;23.398;2023-02-02T01:47:32;94325.03;;;3.91;100.00
4415;BME280;2220;42.670;23.398;2023-02-02T01:49:59;94254.03;;;3.83;100.00
4415;BME280;2220;42.670;23.398;2023-02-02T01:52:26;94218.66;;;3.79;100.00
4415;BME280;2220;42.670;23.398;2023-02-02T01:54:56;94201.41;;;3.68;100.00
4415;BME280;2220;42.670;23.398;2023-02-02T01:57:34;94165.69;;;3.71;100.00
4415;BME280;2220;42.670;23.398;2023-02-02T02:00:06;94146.22;;;3.63;100.00
4415;BME280;2220;42.670;23.398;2023-02-02T02:02:32;94119.56;;;3.58;100.00
4415;BME280;2220;42.670;23.398;2023-02-02T02:05:00;94071.47;;;3.47;100.00
4415;BME280;2220;42.670;23.398;2023-02-02T02:07:27;94030.34;;;3.52;100.00
4415;BME280;2220;42.670;23.398;2023-02-02T02:09:53;93991.59;;;3.58;100.00
4415;BME280;2220;42.670;23.398;2023-02-02T02:12:18;93992.06;;;3.55;100.00
4415;BME280;2220;42.670;23.398;2023-02-02T02:14:47;94000.69;;;3.61;100.00
4415;BME280;2220;42.670;23.398;2023-02-02T02:18:08;93997.53;;;3.59;100.00
4415;BME280;2220;42.670;23.398;2023-02-02T02:30:26;94021.53;;;3.76;100.00
4415;BME280;2220;42.670;23.398;2023-02-02T02:33:04;94018.75;;;3.78;100.00
4415;BME280;2220;42.670;23.398;2023-02-02T02:40:57;94029.13;;;3.83;100.00
4415;BME280;2220;42.670;23.398;2023-02-02T02:45:50;94020.84;;;3.81;100.00
4415;BME280;2220;42.670;23.398;2023-02-02T02:48:16;94020.94;;;3.86;100.00
4415;BME280;2220;42.670;23.398;2023-02-02T02:50:41;94034.97;;;3.78;100.00
4415;BME280;2220;42.670;23.398;2023-02-02T02:53:13;94016.72;;;3.80;100.00
4415;BME280;2220;42.670;23.398;2023-02-02T03:01:01;94025.03;;;3.70;100.00
4415;BME280;2220;42.670;23.398;2023-02-02T03:04:30;94019.13;;;3.70;100.00
4415;BME280;2220;42.670;23.398;2023-02-02T03:07:06;93998.53;;;3.58;100.00
4415;BME280;2220;42.670;23.398;2023-02-02T03:09:39;94020.47;;;3.60;100.00
4415;BME280;2220;42.670;23.398;2023-02-02T03:12:06;94021.16;;;3.56;100.00
4415;BME280;2220;42.670;23.398;2023-02-02T03:14:35;94027.88;;;3.57;100.00
4415;BME280;2220;42.670;23.398;2023-02-02T03:17:01;94015.00;;;3.57;100.00
4415;BME280;2220;42.670;23.398;2023-02-02T03:19:26;94018.22;;;3.64;100.00
4415;BME280;2220;42.670;23.398;2023-02-02T03:21:52;94031.41;;;3.68;100.00
4415;BME280;2220;42.670;23.398;2023-02-02T03:24:17;94014.41;;;3.67;100.00
4415;BME280;2220;42.670;23.398;2023-02-02T03:26:44;94021.31;;;3.78;100.00
4415;BME280;2220;42.670;23.398;2023-02-02T03:29:10;94024.75;;;3.83;100.00
4415;BME280;2220;42.670;23.398;2023-02-02T03:31:36;94029.91;;;3.83;100.00
4415;BME280;2220;42.670;23.398;2023-02-02T03:34:01;94031.81;;;3.88;100.00
4415;BME280;2220;42.670;23.398;2023-02-02T03:36:27;94030.91;;;3.82;100.00
4415;BME280;2220;42.670;23.398;2023-02-02T03:38:52;94039.13;;;3.79;100.00
4415;BME280;2220;42.670;23.398;2023-02-02T03:41:18;94034.94;;;3.61;100.00
4415;BME280;2220;42.670;23.398;2023-02-02T03:43:43;94030.66;;;3.15;100.00
4415;BME280;2220;42.670;23.398;2023-02-02T03:46:09;94031.94;;;2.66;100.00
4415;BME280;2220;42.670;23.398;2023-02-02T03:48:36;94055.59;;;2.33;100.00
4415;BME280;2220;42.670;23.398;2023-02-02T03:51:10;94102.34;;;2.11;100.00
4415;BME280;2220;42.670;23.398;2023-02-02T03:53:36;94122.00;;;1.87;100.00
4415;BME280;2220;42.670;23.398;2023-02-02T03:56:02;94152.69;;;1.82;100.00
4415;BME280;2220;42.670;23.398;2023-02-02T03:58:28;94205.75;;;1.70;100.00
4415;BME280;2220;42.670;23.398;2023-02-02T04:00:53;94219.78;;;1.67;100.00
4415;BME280;2220;42.670;23.398;2023-02-02T04:03:23;94228.44;;;1.73;100.00
4415;BME280;2220;42.670;23.398;2023-02-02T04:05:49;94230.16;;;1.79;100.00
4415;BME280;2220;42.670;23.398;2023-02-02T04:08:14;94229.44;;;1.72;100.00
4415;BME280;2220;42.670;23.398;2023-02-02T04:10:41;94244.06;;;1.72;100.00
4415;BME280;2220;42.670;23.398;2023-02-02T04:13:07;94251.91;;;1.77;100.00
4415;BME280;2220;42.670;23.398;2023-02-02T04:15:32;94242.25;;;1.72;100.00
4415;BME280;2220;42.670;23.398;2023-02-02T04:17:58;94259.03;;;1.75;100.00
4415;BME280;2220;42.670;23.398;2023-02-02T04:20:23;94262.97;;;1.77;100.00
4415;BME280;2220;42.670;23.398;2023-02-02T04:22:49;94267.66;;;1.80;100.00
4415;BME280;2220;42.670;23.398;2023-02-02T04:25:14;94255.13;;;1.90;100.00
4415;BME280;2220;42.670;23.398;2023-02-02T04:27:40;94266.47;;;2.19;100.00
4415;BME280;2220;42.670;23.398;2023-02-02T04:30:06;94255.34;;;2.26;100.00
4415;BME280;2220;42.670;23.398;2023-02-02T04:32:31;94263.19;;;2.49;100.00
4415;BME280;2220;42.670;23.398;2023-02-02T04:34:57;94264.13;;;2.66;100.00
4415;BME280;2220;42.670;23.398;2023-02-02T04:37:22;94252.97;;;2.72;100.00
4415;BME280;2220;42.670;23.398;2023-02-02T04:39:47;94243.16;;;2.81;100.00
4415;BME280;2220;42.670;23.398;2023-02-02T04:42:13;94233.78;;;2.87;100.00
4415;BME280;2220;42.670;23.398;2023-02-02T04:44:38;94230.78;;;2.90;100.00
4415;BME280;2220;42.670;23.398;2023-02-02T04:47:04;94235.69;;;2.91;100.00
4415;BME280;2220;42.670;23.398;2023-02-02T04:49:30;94238.38;;;2.96;100.00
4415;BME280;2220;42.670;23.398;2023-02-02T04:51:55;94233.22;;;2.96;100.00
4415;BME280;2220;42.670;23.398;2023-02-02T04:54:21;94229.88;;;2.96;100.00
4415;BME280;2220;42.670;23.398;2023-02-02T04:56:46;94224.72;;;2.96;100.00
4415;BME280;2220;42.670;23.398;2023-02-02T04:59:12;94222.28;;;2.89;100.00
4415;BME280;2220;42.670;23.398;2023-02-02T05:01:37;94225.63;;;2.90;100.00
4415;BME280;2220;42.670;23.398;2023-02-02T05:04:03;94219.13;;;2.87;100.00
4415;BME280;2220;42.670;23.398;2023-02-02T05:06:28;94225.72;;;2.83;100.00
4415;BME280;2220;42.670;23.398;2023-02-02T05:08:54;94224.91;;;2.71;100.00
4415;BME280;2220;42.670;23.398;2023-02-02T05:11:21;94222.00;;;2.67;100.00
4415;BME280;2220;42.670;23.398;2023-02-02T05:13:50;94228.38;;;2.65;100.00
4415;BME280;2220;42.670;23.398;2023-02-02T05:16:16;94223.59;;;2.50;100.00
4415;BME280;2220;42.670;23.398;2023-02-02T05:18:42;94231.69;;;2.35;100.00
4415;BME280;2220;42.670;23.398;2023-02-02T05:21:08;94246.75;;;2.50;100.00
4415;BME280;2220;42.670;23.398;2023-02-02T05:23:33;94230.91;;;2.35;100.00
4415;BME280;2220;42.670;23.398;2023-02-02T05:25:59;94231.91;;;2.15;100.00
4415;BME280;2220;42.670;23.398;2023-02-02T05:28:24;94248.13;;;2.16;100.00
4415;BME280;2220;42.670;23.398;2023-02-02T05:30:50;94256.59;;;1.61;100.00
4415;BME280;2220;42.670;23.398;2023-02-02T05:33:16;94281.06;;;1.39;100.00
4415;BME280;2220;42.670;23.398;2023-02-02T05:35:46;94294.06;;;1.69;100.00
4415;BME280;2220;42.670;23.398;2023-02-02T05:38:12;94301.03;;;1.62;100.00
4415;BME280;2220;42.670;23.398;2023-02-02T05:40:37;94300.59;;;1.40;100.00
4415;BME280;2220;42.670;23.398;2023-02-02T05:43:03;94296.19;;;1.22;100.00
4415;BME280;2220;42.670;23.398;2023-02-02T05:45:28;94303.97;;;1.09;100.00
4415;BME280;2220;42.670;23.398;2023-02-02T05:47:54;94306.94;;;1.06;100.00
4415;BME280;2220;42.670;23.398;2023-02-02T05:50:22;94310.19;;;0.88;100.00
4415;BME280;2220;42.670;23.398;2023-02-02T05:52:51;94325.47;;;1.08;100.00
4415;BME280;2220;42.670;23.398;2023-02-02T05:55:16;94317.22;;;1.06;100.00
4415;BME280;2220;42.670;23.398;2023-02-02T05:57:44;94312.69;;;1.01;100.00
4415;BME280;2220;42.670;23.398;2023-02-02T06:00:10;94330.63;;;1.01;100.00
4415;BME280;2220;42.670;23.398;2023-02-02T06:02:36;94348.13;;;1.11;100.00
4415;BME280;2220;42.670;23.398;2023-02-02T06:05:01;94341.63;;;1.15;100.00
4415;BME280;2220;42.670;23.398;2023-02-02T06:07:26;94342.41;;;1.16;100.00
4415;BME280;2220;42.670;23.398;2023-02-02T06:09:52;94342.00;;;1.12;100.00
4415;BME280;2220;42.670;23.398;2023-02-02T06:12:20;94350.28;;;1.21;100.00
4415;BME280;2220;42.670;23.398;2023-02-02T06:14:45;94364.91;;;1.14;100.00
4415;BME280;2220;42.670;23.398;2023-02-02T06:17:11;94364.28;;;1.18;100.00
4415;BME280;2220;42.670;23.398;2023-02-02T06:19:36;94366.28;;;1.16;100.00
4415;BME280;2220;42.670;23.398;2023-02-02T06:22:02;94377.09;;;1.18;100.00
4415;BME280;2220;42.670;23.398;2023-02-02T06:24:27;94393.91;;;1.14;100.00
4415;BME280;2220;42.670;23.398;2023-02-02T06:26:53;94387.00;;;1.15;100.00
4415;BME280;2220;42.670;23.398;2023-02-02T06:29:18;94400.38;;;1.23;100.00
4415;BME280;2220;42.670;23.398;2023-02-02T06:31:44;94410.41;;;1.31;100.00
4415;BME280;2220;42.670;23.398;2023-02-02T06:34:10;94427.31;;;1.46;100.00
4415;BME280;2220;42.670;23.398;2023-02-02T06:36:38;94419.75;;;1.51;100.00
4415;BME280;2220;42.670;23.398;2023-02-02T06:39:04;94421.75;;;1.49;100.00
4415;BME280;2220;42.670;23.398;2023-02-02T06:41:33;94425.16;;;1.36;100.00
4415;BME280;2220;42.670;23.398;2023-02-02T06:43:58;94428.53;;;1.68;100.00
4415;BME280;2220;42.670;23.398;2023-02-02T06:46:24;94437.69;;;1.89;100.00
4415;BME280;2220;42.670;23.398;2023-02-02T06:48:49;94438.25;;;2.16;100.00
4415;BME280;2220;42.670;23.398;2023-02-02T06:51:14;94411.63;;;1.85;100.00
4415;BME280;2220;42.670;23.398;2023-02-02T06:53:40;94420.88;;;1.93;100.00
4415;BME280;2220;42.670;23.398;2023-02-02T06:56:06;94424.84;;;2.14;100.00
4415;BME280;2220;42.670;23.398;2023-02-02T06:58:33;94436.75;;;2.33;100.00
4415;BME280;2220;42.670;23.398;2023-02-02T07:01:06;94427.28;;;2.27;100.00
4415;BME280;2220;42.670;23.398;2023-02-02T07:03:33;94435.88;;;2.39;100.00
4415;BME280;2220;42.670;23.398;2023-02-02T07:06:08;94432.97;;;2.11;100.00
4415;BME280;2220;42.670;23.398;2023-02-02T07:08:34;94422.44;;;2.37;100.00
4415;BME280;2220;42.670;23.398;2023-02-02T07:10:59;94436.84;;;2.20;100.00
4415;BME280;2220;42.670;23.398;2023-02-02T07:13:25;94418.84;;;2.20;100.00
4415;BME280;2220;42.670;23.398;2023-02-02T07:15:50;94424.75;;;2.45;100.00
4415;BME280;2220;42.670;23.398;2023-02-02T07:18:15;94420.13;;;2.72;100.00
4415;BME280;2220;42.670;23.398;2023-02-02T07:20:41;94403.34;;;2.51;100.00
4415;BME280;2220;42.670;23.398;2023-02-02T07:23:06;94403.84;;;2.60;100.00
4415;BME280;2220;42.670;23.398;2023-02-02T07:25:32;94411.56;;;2.78;100.00
4415;BME280;2220;42.670;23.398;2023-02-02T07:27:57;94391.69;;;2.67;100.00
4415;BME280;2220;42.670;23.398;2023-02-02T07:30:23;94398.69;;;2.78;100.00
4415;BME280;2220;42.670;23.398;2023-02-02T07:32:49;94405.13;;;2.69;100.00
4415;BME280;2220;42.670;23.398;2023-02-02T07:35:16;94403.63;;;2.80;100.00
4415;BME280;2220;42.670;23.398;2023-02-02T07:37:41;94405.06;;;2.76;100.00
4415;BME280;2220;42.670;23.398;2023-02-02T07:40:08;94410.41;;;2.74;100.00
4415;BME280;2220;42.670;23.398;2023-02-02T07:42:33;94398.06;;;2.65;100.00
4415;BME280;2220;42.670;23.398;2023-02-02T07:44:59;94405.41;;;2.61;100.00
4415;BME280;2220;42.670;23.398;2023-02-02T07:47:25;94398.09;;;2.95;100.00
4415;BME280;2220;42.670;23.398;2023-02-02T07:49:50;94400.22;;;3.16;100.00
4415;BME280;2220;42.670;23.398;2023-02-02T07:52:16;94385.44;;;3.42;100.00
4415;BME280;2220;42.670;23.398;2023-02-02T07:54:41;94362.13;;;3.36;100.00
4415;BME280;2220;42.670;23.398;2023-02-02T07:57:07;94343.59;;;3.46;100.00
4415;BME280;2220;42.670;23.398;2023-02-02T07:59:32;94336.13;;;3.26;100.00
4415;BME280;2220;42.670;23.398;2023-02-02T08:01:58;94336.06;;;3.33;100.00
4415;BME280;2220;42.670;23.398;2023-02-02T08:04:23;94336.56;;;3.53;100.00
4415;BME280;2220;42.670;23.398;2023-02-02T08:06:49;94334.44;;;3.62;100.00
4415;BME280;2220;42.670;23.398;2023-02-02T08:09:15;94323.16;;;3.86;100.00
4415;BME280;2220;42.670;23.398;2023-02-02T08:11:40;94314.31;;;4.17;100.00
4415;BME280;2220;42.670;23.398;2023-02-02T08:14:06;94300.97;;;4.61;100.00
4415;BME280;2220;42.670;23.398;2023-02-02T08:16:32;94295.22;;;4.42;100.00
4415;BME280;2220;42.670;23.398;2023-02-02T08:18:58;94278.66;;;4.66;100.00
4415;BME280;2220;42.670;23.398;2023-02-02T08:21:24;94264.84;;;5.18;100.00
4415;BME280;2220;42.670;23.398;2023-02-02T08:23:51;94241.06;;;5.32;100.00
4415;BME280;2220;42.670;23.398;2023-02-02T08:28:46;94193.69;;;5.60;100.00
4415;BME280;2220;42.670;23.398;2023-02-02T08:31:18;94164.81;;;5.64;100.00
4415;BME280;2220;42.670;23.398;2023-02-02T08:33:44;94145.72;;;5.86;100.00
4415;BME280;2220;42.670;23.398;2023-02-02T08:36:21;94124.72;;;5.61;100.00
4415;BME280;2220;42.670;23.398;2023-02-02T08:38:48;94116.81;;;5.89;100.00
4415;BME280;2220;42.670;23.398;2023-02-02T08:41:16;94110.53;;;6.02;100.00
4415;BME280;2220;42.670;23.398;2023-02-02T08:43:42;94102.50;;;6.26;100.00
4415;BME280;2220;42.670;23.398;2023-02-02T08:46:10;94083.59;;;6.52;100.00
4415;BME280;2220;42.670;23.398;2023-02-02T08:48:36;94086.13;;;6.79;100.00
4415;BME280;2220;42.670;23.398;2023-02-02T08:51:03;94069.31;;;6.82;100.00
4415;BME280;2220;42.670;23.398;2023-02-02T08:53:29;94087.28;;;6.93;100.00
4415;BME280;2220;42.670;23.398;2023-02-02T08:58:28;94081.41;;;6.71;100.00
4415;BME280;2220;42.670;23.398;2023-02-02T09:00:53;94086.84;;;6.69;100.00
4415;BME280;2220;42.670;23.398;2023-02-02T09:03:19;94088.44;;;6.76;100.00
4415;BME280;2220;42.670;23.398;2023-02-02T09:05:44;94091.69;;;6.61;100.00
4415;BME280;2220;42.670;23.398;2023-02-02T09:08:10;94085.91;;;6.22;100.00
4415;BME280;2220;42.670;23.398;2023-02-02T09:10:36;94084.97;;;6.06;100.00
4415;BME280;2220;42.670;23.398;2023-02-02T09:13:03;94083.47;;;6.37;100.00
4415;BME280;2220;42.670;23.398;2023-02-02T09:15:29;94075.78;;;6.79;100.00
4415;BME280;2220;42.670;23.398;2023-02-02T09:17:54;94075.50;;;7.13;100.00
4415;BME280;2220;42.670;23.398;2023-02-02T09:20:20;94077.13;;;7.29;100.00
4415;BME280;2220;42.670;23.398;2023-02-02T09:22:45;94081.03;;;6.89;100.00
4415;BME280;2220;42.670;23.398;2023-02-02T09:25:11;94075.09;;;7.31;100.00
4415;BME280;2220;42.670;23.398;2023-02-02T09:27:37;94074.28;;;6.88;100.00
4415;BME280;2220;42.670;23.398;2023-02-02T09:30:04;94073.94;;;7.12;100.00
4415;BME280;2220;42.670;23.398;2023-02-02T09:32:29;94075.63;;;6.96;100.00
4415;BME280;2220;42.670;23.398;2023-02-02T09:34:55;94058.19;;;7.18;100.00
4415;BME280;2220;42.670;23.398;2023-02-02T09:37:20;94062.13;;;7.26;100.00
4415;BME280;2220;42.670;23.398;2023-02-02T09:39:45;94056.47;;;7.34;100.00
4415;BME280;2220;42.670;23.398;2023-02-02T09:55:02;94099.41;;;8.81;100.00
4415;BME280;2220;42.670;23.398;2023-02-02T09:57:36;94111.06;;;8.58;100.00
4415;BME280;2220;42.670;23.398;2023-02-02T10:00:03;94103.19;;;8.12;100.00
4415;BME280;2220;42.670;23.398;2023-02-02T10:02:38;94082.97;;;8.19;100.00
4415;BME280;2220;42.670;23.398;2023-02-02T10:05:12;94072.16;;;8.43;100.00
4415;BME280;2220;42.670;23.398;2023-02-02T10:07:43;94062.03;;;8.56;100.00
4415;BME280;2220;42.670;23.398;2023-02-02T10:10:28;94073.44;;;8.71;100.00
4415;BME280;2220;42.670;23.398;2023-02-02T10:13:21;94090.84;;;8.60;100.00
4415;BME280;2220;42.670;23.398;2023-02-02T10:15:52;94067.75;;;8.99;100.00
4415;BME280;2220;42.670;23.398;2023-02-02T10:18:38;94089.56;;;8.88;100.00
4415;BME280;2220;42.670;23.398;2023-02-02T10:21:12;94091.84;;;9.30;100.00
4415;BME280;2220;42.670;23.398;2023-02-02T10:23:39;94068.81;;;9.83;100.00
4415;BME280;2220;42.670;23.398;2023-02-02T10:26:21;94133.06;;;9.88;98.89
4415;BME280;2220;42.670;23.398;2023-02-02T10:34:42;94269.88;;;9.73;93.48
4415;BME280;2220;42.670;23.398;2023-02-02T10:37:27;94451.38;;;9.66;92.43
4415;BME280;2220;42.670;23.398;2023-02-02T10:45:56;94692.91;;;9.58;89.38
4415;BME280;2220;42.670;23.398;2023-02-02T10:48:27;94704.94;;;9.69;88.80
4415;BME280;2220;42.670;23.398;2023-02-02T10:50:58;94722.22;;;9.48;88.19
4415;BME280;2220;42.670;23.398;2023-02-02T10:53:27;94736.50;;;9.82;86.32
4415;BME280;2220;42.670;23.398;2023-02-02T11:01:24;94799.41;;;9.74;77.24
4415;BME280;2220;42.670;23.398;2023-02-02T11:03:49;94789.50;;;9.71;76.50
4415;BME280;2220;42.670;23.398;2023-02-02T11:06:35;94770.66;;;9.59;74.59
4415;BME280;2220;42.670;23.398;2023-02-02T11:09:30;94783.81;;;9.74;74.33
4415;BME280;2220;42.670;23.398;2023-02-02T11:12:02;94795.47;;;10.04;73.33
4415;BME280;2220;42.670;23.398;2023-02-02T11:14:46;94785.75;;;9.94;71.14
4415;BME280;2220;42.670;23.398;2023-02-02T11:17:21;94781.25;;;9.79;70.18
4415;BME280;2220;42.670;23.398;2023-02-02T11:19:48;94801.47;;;9.40;71.01
4415;BME280;2220;42.670;23.398;2023-02-02T11:22:32;94790.22;;;9.35;72.54
4415;BME280;2220;42.670;23.398;2023-02-02T11:25:08;94768.84;;;9.55;71.79
4415;BME280;2220;42.670;23.398;2023-02-02T11:27:46;94786.66;;;9.41;71.12
4415;BME280;2220;42.670;23.398;2023-02-02T11:30:33;94783.25;;;9.40;71.72
4415;BME280;2220;42.670;23.398;2023-02-02T11:33:19;94758.97;;;9.30;71.63
4415;BME280;2220;42.670;23.398;2023-02-02T11:35:55;94757.53;;;9.44;72.36
4415;BME280;2220;42.670;23.398;2023-02-02T11:38:21;94763.97;;;9.68;70.06
4415;BME280;2220;42.670;23.398;2023-02-02T11:43:47;94748.63;;;10.09;69.50
4415;BME280;2220;42.670;23.398;2023-02-02T11:49:11;94749.78;;;10.23;69.04
4415;BME280;2220;42.670;23.398;2023-02-02T11:51:32;94738.94;;;10.42;66.82
4415;BME280;2220;42.670;23.398;2023-02-02T11:54:05;94725.41;;;10.40;66.73
4415;BME280;2220;42.670;23.398;2023-02-02T11:56:36;94738.34;;;10.24;67.10
4415;BME280;2220;42.670;23.398;2023-02-02T11:59:02;94728.19;;;10.23;66.83
4415;BME280;2220;42.670;23.398;2023-02-02T12:01:33;94705.53;;;10.23;65.38
4415;BME280;2220;42.670;23.398;2023-02-02T12:06:45;94717.41;;;10.04;67.50
4415;BME280;2220;42.670;23.398;2023-02-02T12:09:16;94694.22;;;9.55;67.82
4415;BME280;2220;42.670;23.398;2023-02-02T12:17:16;94708.53;;;10.00;67.15
4415;BME280;2220;42.670;23.398;2023-02-02T12:27:53;94712.50;;;9.33;70.13
4415;BME280;2220;42.670;23.398;2023-02-02T12:35:43;94728.94;;;9.39;70.06
4415;BME280;2220;42.670;23.398;2023-02-02T12:38:23;94728.16;;;9.43;69.10
4415;BME280;2220;42.670;23.398;2023-02-02T12:43:44;94722.97;;;9.80;69.52
4415;BME280;2220;42.670;23.398;2023-02-02T12:46:35;94716.28;;;9.90;67.26
4415;BME280;2220;42.670;23.398;2023-02-02T12:49:53;94719.19;;;9.61;66.48
4415;BME280;2220;42.670;23.398;2023-02-02T12:54:41;94736.22;;;9.42;66.08
4415;BME280;2220;42.670;23.398;2023-02-02T12:57:14;94719.06;;;9.41;66.33
4415;BME280;2220;42.670;23.398;2023-02-02T13:00:07;94723.94;;;9.37;65.48
4415;BME280;2220;42.670;23.398;2023-02-02T13:02:53;94726.84;;;9.41;66.07
4415;BME280;2220;42.670;23.398;2023-02-02T13:08:44;94722.69;;;9.40;66.80
4415;BME280;2220;42.670;23.398;2023-02-02T13:11:11;94718.03;;;9.79;68.32
4415;BME280;2220;42.670;23.398;2023-02-02T13:14:16;94718.72;;;9.69;66.88
4415;BME280;2220;42.670;23.398;2023-02-02T13:16:50;94714.44;;;9.48;67.20
4415;BME280;2220;42.670;23.398;2023-02-02T13:19:42;94718.28;;;9.40;66.38
4415;BME280;2220;42.670;23.398;2023-02-02T13:22:23;94731.63;;;9.54;65.97
4415;BME280;2220;42.670;23.398;2023-02-02T13:24:52;94744.94;;;9.58;65.46
4415;BME280;2220;42.670;23.398;2023-02-02T13:27:20;94723.72;;;9.39;66.20
4415;BME280;2220;42.670;23.398;2023-02-02T13:30:02;94708.00;;;9.23;67.64
4415;BME280;2220;42.670;23.398;2023-02-02T13:32:33;94706.75;;;8.99;69.78
4415;BME280;2220;42.670;23.398;2023-02-02T13:35:20;94715.16;;;9.43;67.33
4415;BME280;2220;42.670;23.398;2023-02-02T13:38:18;94707.66;;;9.47;66.70
4415;BME280;2220;42.670;23.398;2023-02-02T13:40:46;94721.22;;;9.22;66.49
4415;BME280;2220;42.670;23.398;2023-02-02T13:43:33;94714.09;;;9.07;65.61
4415;BME280;2220;42.670;23.398;2023-02-02T14:05:02;94707.28;;;9.65;67.68
4415;BME280;2220;42.670;23.398;2023-02-02T14:09:56;94712.44;;;9.60;68.07
4415;BME280;2220;42.670;23.398;2023-02-02T14:12:30;94709.50;;;9.19;70.13
4415;BME280;2220;42.670;23.398;2023-02-02T14:14:57;94761.69;;;9.13;71.51
4415;BME280;2220;42.670;23.398;2023-02-02T14:19:58;94709.91;;;9.33;75.06
4415;BME280;2220;42.670;23.398;2023-02-02T14:22:45;94721.09;;;9.07;78.85
4415;BME280;2220;42.670;23.398;2023-02-02T14:28:11;94687.72;;;8.23;86.49
4415;BME280;2220;42.670;23.398;2023-02-02T14:30:38;94695.38;;;7.91;88.14
4415;BME280;2220;42.670;23.398;2023-02-02T14:41:04;94708.00;;;7.15;100.00
4415;BME280;2220;42.670;23.398;2023-02-02T14:43:46;94660.72;;;6.45;100.00
4415;BME280;2220;42.670;23.398;2023-02-02T14:46:21;94611.09;;;6.20;100.00
4415;BME280;2220;42.670;23.398;2023-02-02T14:49:05;94469.34;;;5.88;100.00
4415;BME280;2220;42.670;23.398;2023-02-02T14:51:33;94286.31;;;5.52;100.00
4415;BME280;2220;42.670;23.398;2023-02-02T14:54:20;93959.38;;;4.90;100.00
4415;BME280;2220;42.670;23.398;2023-02-02T14:56:55;93883.50;;;4.69;100.00
4415;BME280;2220;42.670;23.398;2023-02-02T14:59:25;93923.00;;;4.53;100.00
4415;BME280;2220;42.670;23.398;2023-02-02T15:02:02;94010.69;;;4.19;100.00
4415;BME280;2220;42.670;23.398;2023-02-02T15:04:30;94141.75;;;3.99;100.00
4415;BME280;2220;42.670;23.398;2023-02-02T15:09:50;94196.47;;;3.66;100.00
4415;BME280;2220;42.670;23.398;2023-02-02T15:12:21;94196.59;;;3.48;100.00
4415;BME280;2220;42.670;23.398;2023-02-02T15:20:34;94283.78;;;3.32;100.00
4415;BME280;2220;42.670;23.398;2023-02-02T15:28:46;94363.88;;;3.24;100.00
4415;BME280;2220;42.670;23.398;2023-02-02T15:33:54;94296.28;;;3.17;100.00
4415;BME280;2220;42.670;23.398;2023-02-02T15:36:36;94269.31;;;3.20;100.00
4415;BME280;2220;42.670;23.398;2023-02-02T15:41:49;94288.84;;;2.97;100.00
4415;BME280;2220;42.670;23.398;2023-02-02T15:44:36;94247.25;;;3.00;100.00
4415;BME280;2220;42.670;23.398;2023-02-02T15:47:03;94296.00;;;2.65;100.00
4415;BME280;2220;42.670;23.398;2023-02-02T15:49:33;94245.59;;;2.76;100.00
4415;BME280;2220;42.670;23.398;2023-02-02T15:52:10;94249.72;;;2.65;100.00
4415;BME280;2220;42.670;23.398;2023-02-02T15:54:37;94205.22;;;2.65;100.00
4415;BME280;2220;42.670;23.398;2023-02-02T15:57:03;94177.03;;;2.70;100.00